sensor_id;sensor_type;location;lat;lon;timestamp;temperature;humidity
23271;DHT22;11804;51.118;17.058;2023-02-28T00:01:16;1.10;99.90
23271;DHT22;11804;51.118;17.058;2023-02-28T00:03:44;1.10;99.90
23271;DHT22;11804;51.118;17.058;2023-02-28T00:06:11;1.20;99.90
23271;DHT22;11804;51.118;17.058;2023-02-28T00:08:39;1.20;99.90
23271;DHT22;11804;51.118;17.058;2023-02-28T00:11:09;1.20;99.90
23271;DHT22;11804;51.118;17.058;2023-02-28T00:13:40;1.20;99.90
23271;DHT22;11804;51.118;17.058;2023-02-28T00:16:18;1.20;99.90
23271;DHT22;11804;51.118;17.058;2023-02-28T00:18:42;1.20;99.90
23271;DHT22;11804;51.118;17.058;2023-02-28T00:21:10;1.10;99.90
23271;DHT22;11804;51.118;17.058;2023-02-28T00:23:38;1.10;99.90
23271;DHT22;11804;51.118;17.058;2023-02-28T00:26:06;1.10;99.90
23271;DHT22;11804;51.118;17.058;2023-02-28T00:28:33;1.10;99.90
23271;DHT22;11804;51.118;17.058;2023-02-28T00:31:01;1.10;99.90
23271;DHT22;11804;51.118;17.058;2023-02-28T00:33:29;1.10;99.90
23271;DHT22;11804;51.118;17.058;2023-02-28T00:36:05;1.20;99.90
23271;DHT22;11804;51.118;17.058;2023-02-28T00:38:33;1.20;99.90
23271;DHT22;11804;51.118;17.058;2023-02-28T00:41:01;1.20;99.90
23271;DHT22;11804;51.118;17.058;2023-02-28T00:43:33;1.20;99.90
23271;DHT22;11804;51.118;17.058;2023-02-28T00:46:01;1.20;99.90
23271;DHT22;11804;51.118;17.058;2023-02-28T00:48:29;1.10;99.90
23271;DHT22;11804;51.118;17.058;2023-02-28T00:50:59;1.10;99.90
23271;DHT22;11804;51.118;17.058;2023-02-28T00:53:28;1.00;99.90
23271;DHT22;11804;51.118;17.058;2023-02-28T00:55:55;1.10;99.90
23271;DHT22;11804;51.118;17.058;2023-02-28T00:58:23;1.10;99.90
23271;DHT22;11804;51.118;17.058;2023-02-28T01:00:52;1.10;99.90
23271;DHT22;11804;51.118;17.058;2023-02-28T01:03:21;1.10;99.90
23271;DHT22;11804;51.118;17.058;2023-02-28T01:05:49;1.10;99.90
23271;DHT22;11804;51.118;17.058;2023-02-28T01:08:19;1.10;99.90
23271;DHT22;11804;51.118;17.058;2023-02-28T01:10:47;1.10;99.90
23271;DHT22;11804;51.118;17.058;2023-02-28T01:13:16;1.20;99.90
23271;DHT22;11804;51.118;17.058;2023-02-28T01:15:46;1.20;99.90
23271;DHT22;11804;51.118;17.058;2023-02-28T01:18:14;1.20;99.90
23271;DHT22;11804;51.118;17.058;2023-02-28T01:20:42;1.10;99.90
23271;DHT22;11804;51.118;17.058;2023-02-28T01:23:11;1.10;99.90
23271;DHT22;11804;51.118;17.058;2023-02-28T01:25:39;1.10;99.90
23271;DHT22;11804;51.118;17.058;2023-02-28T01:28:07;1.10;99.90
23271;DHT22;11804;51.118;17.058;2023-02-28T01:30:34;1.10;99.90
23271;DHT22;11804;51.118;17.058;2023-02-28T01:33:02;1.10;99.90
23271;DHT22;11804;51.118;17.058;2023-02-28T01:35:32;1.10;99.90
23271;DHT22;11804;51.118;17.058;2023-02-28T01:38:00;1.10;99.90
23271;DHT22;11804;51.118;17.058;2023-02-28T01:40:28;1.10;99.90
23271;DHT22;11804;51.118;17.058;2023-02-28T01:42:56;1.10;99.90
23271;DHT22;11804;51.118;17.058;2023-02-28T01:45:27;1.10;99.90
23271;DHT22;11804;51.118;17.058;2023-02-28T01:48:03;1.10;99.90
23271;DHT22;11804;51.118;17.058;2023-02-28T01:50:29;1.10;99.90
23271;DHT22;11804;51.118;17.058;2023-02-28T01:52:59;1.10;99.90
23271;DHT22;11804;51.118;17.058;2023-02-28T01:55:29;1.10;99.90
23271;DHT22;11804;51.118;17.058;2023-02-28T01:58:00;1.10;99.90
23271;DHT22;11804;51.118;17.058;2023-02-28T02:00:30;1.10;99.90
23271;DHT22;11804;51.118;17.058;2023-02-28T02:03:01;1.10;99.90
23271;DHT22;11804;51.118;17.058;2023-02-28T02:05:30;1.10;99.90
23271;DHT22;11804;51.118;17.058;2023-02-28T02:08:03;1.10;99.90
23271;DHT22;11804;51.118;17.058;2023-02-28T02:10:36;1.10;99.90
23271;DHT22;11804;51.118;17.058;2023-02-28T02:21:14;1.20;99.90
23271;DHT22;11804;51.118;17.058;2023-02-28T02:26:35;1.10;99.90
23271;DHT22;11804;51.118;17.058;2023-02-28T02:29:24;1.10;99.90
23271;DHT22;11804;51.118;17.058;2023-02-28T02:34:53;1.10;99.90
23271;DHT22;11804;51.118;17.058;2023-02-28T02:37:25;1.10;99.90
23271;DHT22;11804;51.118;17.058;2023-02-28T02:40:23;1.10;99.90
23271;DHT22;11804;51.118;17.058;2023-02-28T02:43:07;1.10;99.90
23271;DHT22;11804;51.118;17.058;2023-02-28T02:45:52;1.00;99.90
23271;DHT22;11804;51.118;17.058;2023-02-28T02:48:17;1.10;99.90
23271;DHT22;11804;51.118;17.058;2023-02-28T02:50:59;1.10;99.90
23271;DHT22;11804;51.118;17.058;2023-02-28T02:53:25;1.10;99.90
23271;DHT22;11804;51.118;17.058;2023-02-28T02:55:53;1.10;99.90
23271;DHT22;11804;51.118;17.058;2023-02-28T02:58:24;1.00;99.90
23271;DHT22;11804;51.118;17.058;2023-02-28T03:00:54;1.00;99.90
23271;DHT22;11804;51.118;17.058;2023-02-28T03:03:23;1.10;99.90
23271;DHT22;11804;51.118;17.058;2023-02-28T03:05:53;1.00;99.90
23271;DHT22;11804;51.118;17.058;2023-02-28T03:08:20;1.00;99.90
23271;DHT22;11804;51.118;17.058;2023-02-28T03:10:55;1.00;99.90
23271;DHT22;11804;51.118;17.058;2023-02-28T03:13:57;0.90;99.90
23271;DHT22;11804;51.118;17.058;2023-02-28T03:19:31;0.90;99.90
23271;DHT22;11804;51.118;17.058;2023-02-28T03:25:02;0.90;99.90
23271;DHT22;11804;51.118;17.058;2023-02-28T03:27:38;0.90;99.90
23271;DHT22;11804;51.118;17.058;2023-02-28T03:30:25;0.90;99.90
23271;DHT22;11804;51.118;17.058;2023-02-28T03:32:58;0.90;99.90
23271;DHT22;11804;51.118;17.058;2023-02-28T03:35:32;0.80;99.90
23271;DHT22;11804;51.118;17.058;2023-02-28T03:38:13;0.80;99.90
23271;DHT22;11804;51.118;17.058;2023-02-28T03:40:43;0.80;99.90
23271;DHT22;11804;51.118;17.058;2023-02-28T03:43:13;0.90;99.90
23271;DHT22;11804;51.118;17.058;2023-02-28T03:45:42;0.90;99.90
23271;DHT22;11804;51.118;17.058;2023-02-28T03:48:16;0.80;99.90
23271;DHT22;11804;51.118;17.058;2023-02-28T03:50:47;0.90;99.90
23271;DHT22;11804;51.118;17.058;2023-02-28T03:53:19;0.90;99.90
23271;DHT22;11804;51.118;17.058;2023-02-28T03:55:48;0.90;99.90
23271;DHT22;11804;51.118;17.058;2023-02-28T03:58:29;0.90;99.90
23271;DHT22;11804;51.118;17.058;2023-02-28T04:00:59;0.80;99.90
23271;DHT22;11804;51.118;17.058;2023-02-28T04:03:26;0.80;99.90
23271;DHT22;11804;51.118;17.058;2023-02-28T04:05:55;0.80;99.90
23271;DHT22;11804;51.118;17.058;2023-02-28T04:08:24;0.90;99.90
23271;DHT22;11804;51.118;17.058;2023-02-28T04:10:56;0.80;99.90
23271;DHT22;11804;51.118;17.058;2023-02-28T04:13:22;0.80;99.90
23271;DHT22;11804;51.118;17.058;2023-02-28T04:15:51;0.80;99.90
23271;DHT22;11804;51.118;17.058;2023-02-28T04:18:18;0.80;99.90
23271;DHT22;11804;51.118;17.058;2023-02-28T04:20:46;0.80;99.90
23271;DHT22;11804;51.118;17.058;2023-02-28T04:23:14;0.80;99.90
23271;DHT22;11804;51.118;17.058;2023-02-28T04:25:41;0.90;99.90
23271;DHT22;11804;51.118;17.058;2023-02-28T04:28:09;0.80;99.90
23271;DHT22;11804;51.118;17.058;2023-02-28T04:30:37;0.70;99.90
23271;DHT22;11804;51.118;17.058;2023-02-28T04:33:05;0.70;99.90
23271;DHT22;11804;51.118;17.058;2023-02-28T04:35:33;0.70;99.90
23271;DHT22;11804;51.118;17.058;2023-02-28T04:38:01;0.80;99.90
23271;DHT22;11804;51.118;17.058;2023-02-28T04:40:29;0.80;99.90
23271;DHT22;11804;51.118;17.058;2023-02-28T04:42:56;0.90;99.90
23271;DHT22;11804;51.118;17.058;2023-02-28T04:45:24;0.90;99.90
23271;DHT22;11804;51.118;17.058;2023-02-28T04:47:52;0.90;99.90
23271;DHT22;11804;51.118;17.058;2023-02-28T04:50:20;0.90;99.90
23271;DHT22;11804;51.118;17.058;2023-02-28T04:52:47;0.80;99.90
23271;DHT22;11804;51.118;17.058;2023-02-28T04:55:16;0.80;99.90
23271;DHT22;11804;51.118;17.058;2023-02-28T04:57:44;0.80;99.90
23271;DHT22;11804;51.118;17.058;2023-02-28T05:00:12;0.80;99.90
23271;DHT22;11804;51.118;17.058;2023-02-28T05:02:42;0.80;99.90
23271;DHT22;11804;51.118;17.058;2023-02-28T05:05:09;0.80;99.90
23271;DHT22;11804;51.118;17.058;2023-02-28T05:07:38;0.80;99.90
23271;DHT22;11804;51.118;17.058;2023-02-28T05:10:06;0.80;99.90
23271;DHT22;11804;51.118;17.058;2023-02-28T05:12:34;0.90;99.90
23271;DHT22;11804;51.118;17.058;2023-02-28T05:15:02;0.90;99.90
23271;DHT22;11804;51.118;17.058;2023-02-28T05:17:31;0.80;99.90
23271;DHT22;11804;51.118;17.058;2023-02-28T05:19:59;0.80;99.90
23271;DHT22;11804;51.118;17.058;2023-02-28T05:22:26;0.80;99.90
23271;DHT22;11804;51.118;17.058;2023-02-28T05:24:54;0.70;99.90
23271;DHT22;11804;51.118;17.058;2023-02-28T05:27:22;0.70;99.90
23271;DHT22;11804;51.118;17.058;2023-02-28T05:29:49;0.70;99.90
23271;DHT22;11804;51.118;17.058;2023-02-28T05:32:17;0.70;99.90
23271;DHT22;11804;51.118;17.058;2023-02-28T05:34:44;0.80;99.90
23271;DHT22;11804;51.118;17.058;2023-02-28T05:37:13;0.80;99.90
23271;DHT22;11804;51.118;17.058;2023-02-28T05:39:42;0.80;99.90
23271;DHT22;11804;51.118;17.058;2023-02-28T05:42:10;0.80;99.90
23271;DHT22;11804;51.118;17.058;2023-02-28T05:44:37;0.80;99.90
23271;DHT22;11804;51.118;17.058;2023-02-28T05:47:05;0.80;99.90
23271;DHT22;11804;51.118;17.058;2023-02-28T05:49:33;0.80;99.90
23271;DHT22;11804;51.118;17.058;2023-02-28T05:52:01;0.90;99.90
23271;DHT22;11804;51.118;17.058;2023-02-28T05:54:28;0.90;99.20
23271;DHT22;11804;51.118;17.058;2023-02-28T05:56:56;0.80;96.60
23271;DHT22;11804;51.118;17.058;2023-02-28T05:59:24;0.80;95.10
23271;DHT22;11804;51.118;17.058;2023-02-28T06:01:51;0.80;95.50
23271;DHT22;11804;51.118;17.058;2023-02-28T06:04:20;0.80;95.10
23271;DHT22;11804;51.118;17.058;2023-02-28T06:06:48;0.90;94.80
23271;DHT22;11804;51.118;17.058;2023-02-28T06:09:17;0.90;95.10
23271;DHT22;11804;51.118;17.058;2023-02-28T06:11:45;1.00;95.50
23271;DHT22;11804;51.118;17.058;2023-02-28T06:14:18;1.00;95.70
23271;DHT22;11804;51.118;17.058;2023-02-28T06:16:46;0.80;99.10
23271;DHT22;11804;51.118;17.058;2023-02-28T06:19:14;0.70;99.90
23271;DHT22;11804;51.118;17.058;2023-02-28T06:21:43;0.70;99.90
23271;DHT22;11804;51.118;17.058;2023-02-28T06:24:10;0.80;99.90
23271;DHT22;11804;51.118;17.058;2023-02-28T06:26:38;0.80;99.90
23271;DHT22;11804;51.118;17.058;2023-02-28T06:29:06;0.90;99.90
23271;DHT22;11804;51.118;17.058;2023-02-28T06:31:34;1.10;99.90
23271;DHT22;11804;51.118;17.058;2023-02-28T06:34:01;1.30;99.90
23271;DHT22;11804;51.118;17.058;2023-02-28T06:36:29;1.40;99.90
23271;DHT22;11804;51.118;17.058;2023-02-28T06:38:57;1.40;99.90
23271;DHT22;11804;51.118;17.058;2023-02-28T06:41:26;1.20;96.20
23271;DHT22;11804;51.118;17.058;2023-02-28T06:43:54;1.10;97.30
23271;DHT22;11804;51.118;17.058;2023-02-28T06:46:22;1.10;97.10
23271;DHT22;11804;51.118;17.058;2023-02-28T06:48:49;1.10;94.70
23271;DHT22;11804;51.118;17.058;2023-02-28T06:51:19;1.20;91.40
23271;DHT22;11804;51.118;17.058;2023-02-28T06:53:49;1.20;91.10
23271;DHT22;11804;51.118;17.058;2023-02-28T06:56:17;1.20;92.20
23271;DHT22;11804;51.118;17.058;2023-02-28T06:58:47;1.20;92.40
23271;DHT22;11804;51.118;17.058;2023-02-28T07:01:16;1.30;92.70
23271;DHT22;11804;51.118;17.058;2023-02-28T07:03:46;1.30;91.90
23271;DHT22;11804;51.118;17.058;2023-02-28T07:06:15;1.30;90.50
23271;DHT22;11804;51.118;17.058;2023-02-28T07:08:45;1.30;88.20
23271;DHT22;11804;51.118;17.058;2023-02-28T07:11:12;1.30;86.00
23271;DHT22;11804;51.118;17.058;2023-02-28T07:13:40;1.30;86.10
23271;DHT22;11804;51.118;17.058;2023-02-28T07:16:10;1.40;87.00
23271;DHT22;11804;51.118;17.058;2023-02-28T07:18:38;1.50;84.60
23271;DHT22;11804;51.118;17.058;2023-02-28T07:21:08;1.60;82.00
23271;DHT22;11804;51.118;17.058;2023-02-28T07:23:36;1.50;81.40
23271;DHT22;11804;51.118;17.058;2023-02-28T07:26:07;1.50;81.00
23271;DHT22;11804;51.118;17.058;2023-02-28T07:28:37;1.50;80.80
23271;DHT22;11804;51.118;17.058;2023-02-28T07:31:08;1.60;80.80
23271;DHT22;11804;51.118;17.058;2023-02-28T07:33:37;1.60;79.50
23271;DHT22;11804;51.118;17.058;2023-02-28T07:36:12;1.60;79.10
23271;DHT22;11804;51.118;17.058;2023-02-28T07:38:37;1.60;76.60
23271;DHT22;11804;51.118;17.058;2023-02-28T07:41:04;1.50;76.40
23271;DHT22;11804;51.118;17.058;2023-02-28T07:43:32;1.60;77.50
23271;DHT22;11804;51.118;17.058;2023-02-28T07:46:12;1.70;78.20
23271;DHT22;11804;51.118;17.058;2023-02-28T07:48:43;1.70;76.30
23271;DHT22;11804;51.118;17.058;2023-02-28T07:51:11;1.70;75.20
23271;DHT22;11804;51.118;17.058;2023-02-28T07:53:38;1.70;76.00
23271;DHT22;11804;51.118;17.058;2023-02-28T07:56:07;1.80;75.60
23271;DHT22;11804;51.118;17.058;2023-02-28T07:58:35;1.80;75.00
23271;DHT22;11804;51.118;17.058;2023-02-28T08:01:07;1.80;74.90
23271;DHT22;11804;51.118;17.058;2023-02-28T08:03:35;1.90;75.60
23271;DHT22;11804;51.118;17.058;2023-02-28T08:06:05;2.00;73.90
23271;DHT22;11804;51.118;17.058;2023-02-28T08:08:33;2.20;73.60
23271;DHT22;11804;51.118;17.058;2023-02-28T08:11:01;2.30;73.20
23271;DHT22;11804;51.118;17.058;2023-02-28T08:13:30;2.40;73.50
23271;DHT22;11804;51.118;17.058;2023-02-28T08:15:57;2.70;73.10
23271;DHT22;11804;51.118;17.058;2023-02-28T08:18:25;3.00;72.80
23271;DHT22;11804;51.118;17.058;2023-02-28T08:20:53;3.90;70.20
23271;DHT22;11804;51.118;17.058;2023-02-28T08:23:20;5.40;64.60
23271;DHT22;11804;51.118;17.058;2023-02-28T08:25:55;6.70;60.10
23271;DHT22;11804;51.118;17.058;2023-02-28T08:28:24;7.30;58.20
23271;DHT22;11804;51.118;17.058;2023-02-28T08:30:51;8.10;56.70
23271;DHT22;11804;51.118;17.058;2023-02-28T08:33:19;8.20;52.30
23271;DHT22;11804;51.118;17.058;2023-02-28T08:35:46;8.30;50.60
23271;DHT22;11804;51.118;17.058;2023-02-28T08:38:14;7.60;52.30
23271;DHT22;11804;51.118;17.058;2023-02-28T08:40:41;8.10;53.50
23271;DHT22;11804;51.118;17.058;2023-02-28T08:43:09;7.90;52.00
23271;DHT22;11804;51.118;17.058;2023-02-28T08:45:37;8.20;52.30
23271;DHT22;11804;51.118;17.058;2023-02-28T08:48:04;9.60;49.80
23271;DHT22;11804;51.118;17.058;2023-02-28T08:50:32;9.60;48.60
23271;DHT22;11804;51.118;17.058;2023-02-28T08:53:00;9.70;48.90
23271;DHT22;11804;51.118;17.058;2023-02-28T08:55:27;10.00;48.20
23271;DHT22;11804;51.118;17.058;2023-02-28T08:57:55;10.50;47.90
23271;DHT22;11804;51.118;17.058;2023-02-28T09:00:23;10.60;46.80
23271;DHT22;11804;51.118;17.058;2023-02-28T09:02:51;9.40;45.80
23271;DHT22;11804;51.118;17.058;2023-02-28T09:05:18;8.10;48.50
23271;DHT22;11804;51.118;17.058;2023-02-28T09:07:46;8.60;50.00
23271;DHT22;11804;51.118;17.058;2023-02-28T09:10:14;9.70;48.00
23271;DHT22;11804;51.118;17.058;2023-02-28T09:12:42;8.40;48.10
23271;DHT22;11804;51.118;17.058;2023-02-28T09:15:11;8.70;49.40
23271;DHT22;11804;51.118;17.058;2023-02-28T09:17:38;8.70;49.00
23271;DHT22;11804;51.118;17.058;2023-02-28T09:20:07;9.60;47.90
23271;DHT22;11804;51.118;17.058;2023-02-28T09:22:35;9.40;46.50
23271;DHT22;11804;51.118;17.058;2023-02-28T09:25:03;9.20;47.60
23271;DHT22;11804;51.118;17.058;2023-02-28T09:27:30;9.60;47.40
23271;DHT22;11804;51.118;17.058;2023-02-28T09:29:58;9.00;47.50
23271;DHT22;11804;51.118;17.058;2023-02-28T09:32:26;9.20;47.40
23271;DHT22;11804;51.118;17.058;2023-02-28T09:34:53;10.50;47.30
23271;DHT22;11804;51.118;17.058;2023-02-28T09:37:21;10.50;45.80
23271;DHT22;11804;51.118;17.058;2023-02-28T09:39:49;10.50;45.30
23271;DHT22;11804;51.118;17.058;2023-02-28T09:42:27;10.00;46.20
23271;DHT22;11804;51.118;17.058;2023-02-28T09:45:00;10.10;46.70
23271;DHT22;11804;51.118;17.058;2023-02-28T09:50:28;10.10;46.30
23271;DHT22;11804;51.118;17.058;2023-02-28T09:52:32;10.30;46.80
23271;DHT22;11804;51.118;17.058;2023-02-28T09:55:30;10.20;46.40
23271;DHT22;11804;51.118;17.058;2023-02-28T09:58:00;10.10;46.40
23271;DHT22;11804;51.118;17.058;2023-02-28T10:00:32;10.30;46.60
23271;DHT22;11804;51.118;17.058;2023-02-28T10:11:00;11.10;44.70
23271;DHT22;11804;51.118;17.058;2023-02-28T10:13:36;10.60;44.90
23271;DHT22;11804;51.118;17.058;2023-02-28T10:16:12;11.50;43.30
23271;DHT22;11804;51.118;17.058;2023-02-28T10:18:53;10.50;43.40
23271;DHT22;11804;51.118;17.058;2023-02-28T10:21:23;10.20;45.00
23271;DHT22;11804;51.118;17.058;2023-02-28T10:23:53;10.20;46.00
23271;DHT22;11804;51.118;17.058;2023-02-28T10:26:20;10.10;45.80
23271;DHT22;11804;51.118;17.058;2023-02-28T10:28:51;10.10;46.70
23271;DHT22;11804;51.118;17.058;2023-02-28T10:31:20;10.20;46.80
23271;DHT22;11804;51.118;17.058;2023-02-28T10:33:48;10.10;46.60
23271;DHT22;11804;51.118;17.058;2023-02-28T10:36:18;10.30;46.00
23271;DHT22;11804;51.118;17.058;2023-02-28T10:38:47;10.10;46.10
23271;DHT22;11804;51.118;17.058;2023-02-28T10:41:26;10.30;46.30
23271;DHT22;11804;51.118;17.058;2023-02-28T10:43:46;10.80;45.00
23271;DHT22;11804;51.118;17.058;2023-02-28T10:46:15;10.50;45.50
23271;DHT22;11804;51.118;17.058;2023-02-28T10:48:57;10.40;46.20
23271;DHT22;11804;51.118;17.058;2023-02-28T10:51:19;10.30;46.70
23271;DHT22;11804;51.118;17.058;2023-02-28T10:53:55;9.90;46.40
23271;DHT22;11804;51.118;17.058;2023-02-28T10:56:21;9.90;47.20
23271;DHT22;11804;51.118;17.058;2023-02-28T11:07:03;9.00;49.70
23271;DHT22;11804;51.118;17.058;2023-02-28T11:09:39;8.90;49.30
23271;DHT22;11804;51.118;17.058;2023-02-28T11:12:19;8.60;49.80
23271;DHT22;11804;51.118;17.058;2023-02-28T11:14:40;8.70;49.40
23271;DHT22;11804;51.118;17.058;2023-02-28T11:17:23;8.10;49.70
23271;DHT22;11804;51.118;17.058;2023-02-28T11:19:58;8.00;51.70
23271;DHT22;11804;51.118;17.058;2023-02-28T11:22:23;7.70;52.40
23271;DHT22;11804;51.118;17.058;2023-02-28T11:24:57;7.70;52.50
23271;DHT22;11804;51.118;17.058;2023-02-28T11:30:03;7.40;53.40
23271;DHT22;11804;51.118;17.058;2023-02-28T11:32:31;7.30;53.90
23271;DHT22;11804;51.118;17.058;2023-02-28T11:37:40;6.60;54.90
23271;DHT22;11804;51.118;17.058;2023-02-28T11:40:15;6.40;55.30
23271;DHT22;11804;51.118;17.058;2023-02-28T11:43:06;6.00;56.30
23271;DHT22;11804;51.118;17.058;2023-02-28T11:45:55;5.80;56.70
23271;DHT22;11804;51.118;17.058;2023-02-28T11:48:32;4.80;58.10
23271;DHT22;11804;51.118;17.058;2023-02-28T11:53:52;5.20;58.90
23271;DHT22;11804;51.118;17.058;2023-02-28T11:56:25;5.50;57.80
23271;DHT22;11804;51.118;17.058;2023-02-28T12:04:20;5.30;58.40
23271;DHT22;11804;51.118;17.058;2023-02-28T12:20:54;6.30;56.90
23271;DHT22;11804;51.118;17.058;2023-02-28T12:23:44;6.30;57.30
23271;DHT22;11804;51.118;17.058;2023-02-28T12:29:04;5.90;58.40
23271;DHT22;11804;51.118;17.058;2023-02-28T12:31:33;5.80;58.80
23271;DHT22;11804;51.118;17.058;2023-02-28T12:34:00;6.00;58.90
23271;DHT22;11804;51.118;17.058;2023-02-28T12:36:28;5.80;58.50
23271;DHT22;11804;51.118;17.058;2023-02-28T12:39:04;5.40;59.30
23271;DHT22;11804;51.118;17.058;2023-02-28T12:41:41;5.50;59.80
23271;DHT22;11804;51.118;17.058;2023-02-28T12:46:57;5.90;59.70
23271;DHT22;11804;51.118;17.058;2023-02-28T12:51:59;6.20;58.90
23271;DHT22;11804;51.118;17.058;2023-02-28T12:54:40;6.00;59.30
23271;DHT22;11804;51.118;17.058;2023-02-28T13:00:03;5.80;60.60
23271;DHT22;11804;51.118;17.058;2023-02-28T13:02:45;5.90;60.60
23271;DHT22;11804;51.118;17.058;2023-02-28T13:05:19;6.00;60.00
23271;DHT22;11804;51.118;17.058;2023-02-28T13:10:47;5.80;59.90
23271;DHT22;11804;51.118;17.058;2023-02-28T13:13:25;5.90;60.90
23271;DHT22;11804;51.118;17.058;2023-02-28T13:16:07;6.20;60.80
23271;DHT22;11804;51.118;17.058;2023-02-28T13:18:37;6.30;60.00
23271;DHT22;11804;51.118;17.058;2023-02-28T13:21:29;6.20;60.10
23271;DHT22;11804;51.118;17.058;2023-02-28T13:24:07;6.10;60.40
23271;DHT22;11804;51.118;17.058;2023-02-28T13:29:21;6.00;60.40
23271;DHT22;11804;51.118;17.058;2023-02-28T13:34:42;5.80;60.50
23271;DHT22;11804;51.118;17.058;2023-02-28T13:39:59;5.70;61.20
23271;DHT22;11804;51.118;17.058;2023-02-28T13:42:46;5.90;60.60
23271;DHT22;11804;51.118;17.058;2023-02-28T13:50:24;6.00;60.00
23271;DHT22;11804;51.118;17.058;2023-02-28T13:53:20;6.10;60.10
23271;DHT22;11804;51.118;17.058;2023-02-28T14:04:30;6.20;59.70
23271;DHT22;11804;51.118;17.058;2023-02-28T14:06:54;6.10;59.50
23271;DHT22;11804;51.118;17.058;2023-02-28T14:09:38;5.80;59.70
23271;DHT22;11804;51.118;17.058;2023-02-28T14:18:20;5.90;59.50
23271;DHT22;11804;51.118;17.058;2023-02-28T14:20:52;5.90;60.00
23271;DHT22;11804;51.118;17.058;2023-02-28T14:37:25;5.70;61.60
23271;DHT22;11804;51.118;17.058;2023-02-28T14:39:51;5.60;61.30
23271;DHT22;11804;51.118;17.058;2023-02-28T14:42:27;5.50;61.50
23271;DHT22;11804;51.118;17.058;2023-02-28T14:44:57;5.30;62.20
23271;DHT22;11804;51.118;17.058;2023-02-28T14:47:31;5.30;62.70
23271;DHT22;11804;51.118;17.058;2023-02-28T14:49:55;5.20;62.50
23271;DHT22;11804;51.118;17.058;2023-02-28T14:52:28;5.30;63.00
23271;DHT22;11804;51.118;17.058;2023-02-28T14:55:01;5.40;62.60
23271;DHT22;11804;51.118;17.058;2023-02-28T14:57:31;5.50;62.70
23271;DHT22;11804;51.118;17.058;2023-02-28T15:00:02;5.50;62.30
23271;DHT22;11804;51.118;17.058;2023-02-28T15:02:34;5.60;61.80
23271;DHT22;11804;51.118;17.058;2023-02-28T15:05:25;5.40;61.60
23271;DHT22;11804;51.118;17.058;2023-02-28T15:07:31;5.40;62.10
23271;DHT22;11804;51.118;17.058;2023-02-28T15:10:23;5.40;62.20
23271;DHT22;11804;51.118;17.058;2023-02-28T15:12:58;5.30;61.90
23271;DHT22;11804;51.118;17.058;2023-02-28T15:18:04;5.20;62.20
23271;DHT22;11804;51.118;17.058;2023-02-28T15:20:33;5.10;62.30
23271;DHT22;11804;51.118;17.058;2023-02-28T15:23:02;5.10;62.80
23271;DHT22;11804;51.118;17.058;2023-02-28T15:25:30;5.10;63.20
23271;DHT22;11804;51.118;17.058;2023-02-28T15:27:58;5.10;63.40
23271;DHT22;11804;51.118;17.058;2023-02-28T15:30:28;5.10;63.80
23271;DHT22;11804;51.118;17.058;2023-02-28T15:35:42;4.90;64.70
23271;DHT22;11804;51.118;17.058;2023-02-28T15:38:26;4.60;65.60
23271;DHT22;11804;51.118;17.058;2023-02-28T15:40:52;4.50;66.00
23271;DHT22;11804;51.118;17.058;2023-02-28T15:43:31;4.50;66.70
23271;DHT22;11804;51.118;17.058;2023-02-28T15:46:12;4.40;67.00
23271;DHT22;11804;51.118;17.058;2023-02-28T15:48:59;4.50;67.00
23271;DHT22;11804;51.118;17.058;2023-02-28T15:51:17;4.50;67.00
23271;DHT22;11804;51.118;17.058;2023-02-28T15:53:51;4.40;67.60
23271;DHT22;11804;51.118;17.058;2023-02-28T15:56:32;4.50;67.70
23271;DHT22;11804;51.118;17.058;2023-02-28T15:59:01;4.40;67.50
23271;DHT22;11804;51.118;17.058;2023-02-28T16:01:32;4.40;67.80
23271;DHT22;11804;51.118;17.058;2023-02-28T16:04:03;4.30;67.90
23271;DHT22;11804;51.118;17.058;2023-02-28T16:06:43;4.20;68.00
23271;DHT22;11804;51.118;17.058;2023-02-28T16:09:16;4.10;68.00
23271;DHT22;11804;51.118;17.058;2023-02-28T16:11:49;4.10;68.20
23271;DHT22;11804;51.118;17.058;2023-02-28T16:14:20;4.00;68.30
23271;DHT22;11804;51.118;17.058;2023-02-28T16:16:52;4.00;68.40
23271;DHT22;11804;51.118;17.058;2023-02-28T16:19:20;4.00;68.60
23271;DHT22;11804;51.118;17.058;2023-02-28T16:21:48;4.00;68.80
23271;DHT22;11804;51.118;17.058;2023-02-28T16:24:16;3.90;68.80
23271;DHT22;11804;51.118;17.058;2023-02-28T16:26:46;3.80;69.20
23271;DHT22;11804;51.118;17.058;2023-02-28T16:29:24;3.80;69.50
23271;DHT22;11804;51.118;17.058;2023-02-28T16:31:52;3.70;69.90
23271;DHT22;11804;51.118;17.058;2023-02-28T16:34:21;3.60;70.30
23271;DHT22;11804;51.118;17.058;2023-02-28T16:36:49;3.60;70.60
23271;DHT22;11804;51.118;17.058;2023-02-28T16:39:17;3.50;70.90
23271;DHT22;11804;51.118;17.058;2023-02-28T16:41:48;3.40;71.40
23271;DHT22;11804;51.118;17.058;2023-02-28T16:44:24;3.40;72.00
23271;DHT22;11804;51.118;17.058;2023-02-28T16:46:47;3.30;72.60
23271;DHT22;11804;51.118;17.058;2023-02-28T16:49:16;3.30;73.00
23271;DHT22;11804;51.118;17.058;2023-02-28T16:51:43;3.30;73.50
23271;DHT22;11804;51.118;17.058;2023-02-28T16:54:11;3.20;73.80
23271;DHT22;11804;51.118;17.058;2023-02-28T16:56:42;3.20;74.20
23271;DHT22;11804;51.118;17.058;2023-02-28T16:59:12;3.10;74.50
23271;DHT22;11804;51.118;17.058;2023-02-28T17:01:40;3.10;75.00
23271;DHT22;11804;51.118;17.058;2023-02-28T17:04:10;3.10;75.00
23271;DHT22;11804;51.118;17.058;2023-02-28T17:06:40;3.00;75.70
23271;DHT22;11804;51.118;17.058;2023-02-28T17:09:19;2.90;75.90
23271;DHT22;11804;51.118;17.058;2023-02-28T17:11:47;2.90;76.20
23271;DHT22;11804;51.118;17.058;2023-02-28T17:14:16;2.90;76.40
23271;DHT22;11804;51.118;17.058;2023-02-28T17:16:43;2.80;76.60
23271;DHT22;11804;51.118;17.058;2023-02-28T17:19:15;2.70;77.10
23271;DHT22;11804;51.118;17.058;2023-02-28T17:21:46;2.70;77.40
23271;DHT22;11804;51.118;17.058;2023-02-28T17:24:13;2.70;77.50
23271;DHT22;11804;51.118;17.058;2023-02-28T17:26:41;2.70;77.70
23271;DHT22;11804;51.118;17.058;2023-02-28T17:29:18;2.70;77.80
23271;DHT22;11804;51.118;17.058;2023-02-28T17:31:45;2.70;78.00
23271;DHT22;11804;51.118;17.058;2023-02-28T17:34:13;2.60;78.40
23271;DHT22;11804;51.118;17.058;2023-02-28T17:36:47;2.50;78.50
23271;DHT22;11804;51.118;17.058;2023-02-28T17:39:16;2.50;78.80
23271;DHT22;11804;51.118;17.058;2023-02-28T17:41:52;2.50;79.20
23271;DHT22;11804;51.118;17.058;2023-02-28T17:44:21;2.50;79.40
23271;DHT22;11804;51.118;17.058;2023-02-28T17:46:50;2.50;79.80
23271;DHT22;11804;51.118;17.058;2023-02-28T17:49:19;2.50;79.90
23271;DHT22;11804;51.118;17.058;2023-02-28T17:51:47;2.50;79.90
23271;DHT22;11804;51.118;17.058;2023-02-28T17:54:17;2.50;80.00
23271;DHT22;11804;51.118;17.058;2023-02-28T17:56:44;2.40;79.90
23271;DHT22;11804;51.118;17.058;2023-02-28T17:59:12;2.40;80.50